createdAt,value
2022-08-11T00:00:42.895Z,80.60
2022-08-11T00:01:42.862Z,80.60
2022-08-11T00:02:42.877Z,80.80
2022-08-11T00:03:43.950Z,80.71
2022-08-11T00:04:42.832Z,80.16
2022-08-11T00:05:42.850Z,81.21
2022-08-11T00:06:42.831Z,81.41
2022-08-11T00:07:42.818Z,81.01
2022-08-11T00:08:42.804Z,81.72
2022-08-11T00:09:42.829Z,81.66
2022-08-11T00:10:42.808Z,82.23
2022-08-11T00:11:42.788Z,82.43
2022-08-11T00:12:42.775Z,82.37
2022-08-11T00:13:42.762Z,82.37
2022-08-11T00:14:42.757Z,82.47
2022-08-11T00:15:42.769Z,82.17
2022-08-11T00:16:42.738Z,82.26
2022-08-11T00:17:42.728Z,82.26
2022-08-11T00:18:42.721Z,82.51
2022-08-11T00:20:14.299Z,82.51
2022-08-11T00:20:43.725Z,82.37
2022-08-11T00:22:05.101Z,82.71
2022-08-11T00:22:43.685Z,82.47
2022-08-11T00:23:42.680Z,82.31
2022-08-11T00:24:53.392Z,82.51
2022-08-11T00:25:43.690Z,82.92
2022-08-11T00:26:42.659Z,82.61
2022-08-11T00:27:42.649Z,82.87
2022-08-11T00:28:42.643Z,82.51
2022-08-11T00:29:51.748Z,82.87
2022-08-11T00:30:43.649Z,82.92
2022-08-11T00:31:42.620Z,82.92
2022-08-11T00:32:42.611Z,82.81
2022-08-11T00:33:45.233Z,82.40
2022-08-11T00:34:42.600Z,82.61
2022-08-11T00:35:55.516Z,82.71
2022-08-11T00:36:43.573Z,83.01
2022-08-11T00:37:42.608Z,83.18
2022-08-11T00:38:42.563Z,83.62
2022-08-11T00:39:42.641Z,83.53
2022-08-11T00:40:42.578Z,83.73
2022-08-11T00:41:42.539Z,83.42
2022-08-11T00:42:42.539Z,84.28
2022-08-11T00:43:42.531Z,84.58
2022-08-11T00:44:42.517Z,84.28
2022-08-11T00:45:42.539Z,84.28
2022-08-11T00:46:42.509Z,84.88
2022-08-11T00:47:42.494Z,84.68
2022-08-11T00:48:42.476Z,84.58
2022-08-11T00:49:43.480Z,84.48
2022-08-11T00:50:42.499Z,84.68
2022-08-11T00:51:56.724Z,84.28
2022-08-11T00:52:43.452Z,84.48
2022-08-11T00:53:42.446Z,84.68
2022-08-11T00:54:42.438Z,83.36
2022-08-11T00:55:42.459Z,84.58
2022-08-11T00:56:42.426Z,84.38
2022-08-11T00:57:42.421Z,84.28
2022-08-11T00:58:42.408Z,84.58
2022-08-11T00:59:42.402Z,84.48
2022-08-11T01:00:42.451Z,84.48
2022-08-11T01:01:42.390Z,84.92
2022-08-11T01:02:42.382Z,85.13
2022-08-11T01:03:42.376Z,85.03
2022-08-11T01:04:42.364Z,85.29
2022-08-11T01:05:42.383Z,85.74
2022-08-11T01:06:42.351Z,85.53
2022-08-11T01:08:01.838Z,85.33
2022-08-11T01:08:43.334Z,84.82
2022-08-11T01:09:42.326Z,84.92
2022-08-11T01:10:42.351Z,85.03
2022-08-11T01:11:55.216Z,85.13
2022-08-11T01:12:43.305Z,85.33
2022-08-11T01:13:42.291Z,85.03
2022-08-11T01:14:42.291Z,85.47
2022-08-11T01:15:42.301Z,85.23
2022-08-11T01:16:43.270Z,85.03
2022-08-11T01:17:42.263Z,85.33
2022-08-11T01:18:42.261Z,84.76
2022-08-11T01:20:39.473Z,84.86
2022-08-11T01:20:48.629Z,84.97
2022-08-11T01:21:43.234Z,85.58
2022-08-11T01:22:42.225Z,85.37
2022-08-11T01:23:42.216Z,85.61
2022-08-11T01:24:42.211Z,85.58
2022-08-11T01:25:56.811Z,86.43
2022-08-11T01:26:43.190Z,86.43
2022-08-11T01:27:42.190Z,86.43
2022-08-11T01:28:42.177Z,86.43
2022-08-11T01:29:42.171Z,85.92
2022-08-11T01:30:43.348Z,86.74
2022-08-11T01:31:42.159Z,86.53
2022-08-11T01:32:42.146Z,85.82
2022-08-11T01:33:42.139Z,86.08
2022-08-11T01:34:42.133Z,86.22
2022-08-11T01:35:42.158Z,86.22
2022-08-11T01:36:42.114Z,85.72
2022-08-11T01:37:42.110Z,86.13
2022-08-11T01:38:42.105Z,86.29
2022-08-11T01:39:42.146Z,86.74
2022-08-11T01:40:42.090Z,86.53
2022-08-11T01:41:42.108Z,86.83
2022-08-11T01:42:42.074Z,86.43
2022-08-11T01:43:42.065Z,86.43
2022-08-11T01:44:42.053Z,86.94
2022-08-11T01:45:42.043Z,87.65
2022-08-11T01:46:43.068Z,87.45
2022-08-11T01:47:52.910Z,87.35
2022-08-11T01:48:43.026Z,87.49
2022-08-11T01:50:08.186Z,87.65
2022-08-11T01:50:43.013Z,86.94
2022-08-11T01:51:45.209Z,86.43
2022-08-11T01:52:43.208Z,86.88
2022-08-11T01:53:41.988Z,86.98
2022-08-11T01:54:41.980Z,86.43
2022-08-11T01:55:41.971Z,87.79
2022-08-11T01:56:41.984Z,87.55
2022-08-11T01:57:41.952Z,87.69
2022-08-11T01:58:44.069Z,87.69
2022-08-11T01:59:41.950Z,87.69
2022-08-11T02:00:41.991Z,87.18
2022-08-11T02:01:41.950Z,87.29
2022-08-11T02:02:41.911Z,87.29
2022-08-11T02:03:41.908Z,87.29
2022-08-11T02:04:41.899Z,87.38
2022-08-11T02:05:41.894Z,87.08
2022-08-11T02:06:41.911Z,87.18
2022-08-11T02:07:41.879Z,87.59
2022-08-11T02:08:44.766Z,87.84
2022-08-11T02:09:49.760Z,87.73
2022-08-11T02:10:42.853Z,87.73
2022-08-11T02:11:42.870Z,88.00
2022-08-11T02:12:42.300Z,88.04
2022-08-11T02:13:43.405Z,88.04
2022-08-11T02:14:41.829Z,87.94
2022-08-11T02:15:42.813Z,87.73
2022-08-11T02:16:41.833Z,87.63
2022-08-11T02:17:41.803Z,88.14
2022-08-11T02:18:41.798Z,87.94
2022-08-11T02:19:41.793Z,88.34
2022-08-11T02:20:41.783Z,88.34
2022-08-11T02:21:41.807Z,88.96
2022-08-11T02:22:41.765Z,88.34
2022-08-11T02:24:05.955Z,88.34
2022-08-11T02:24:42.749Z,88.04
2022-08-11T02:25:41.741Z,88.34
2022-08-11T02:26:41.759Z,88.14
2022-08-11T02:27:41.730Z,88.24
2022-08-11T02:28:46.429Z,88.14
2022-08-11T02:29:42.715Z,88.04
2022-08-11T02:30:41.704Z,88.24
2022-08-11T02:32:25.143Z,88.24
2022-08-11T02:32:42.829Z,88.24
2022-08-11T02:33:41.681Z,88.24
2022-08-11T02:34:41.675Z,87.94
2022-08-11T02:35:41.668Z,88.14
2022-08-11T02:36:41.685Z,88.34
2022-08-11T02:37:41.661Z,88.18
2022-08-11T02:38:41.642Z,88.04
2022-08-11T02:39:41.675Z,88.14
2022-08-11T02:40:41.624Z,87.63
2022-08-11T02:41:41.650Z,88.34
2022-08-11T02:42:41.611Z,88.04
2022-08-11T02:43:41.606Z,89.06
2022-08-11T02:44:42.593Z,89.10
2022-08-11T02:45:41.593Z,88.90
2022-08-11T02:46:41.587Z,89.00
2022-08-11T02:47:41.604Z,89.00
2022-08-11T02:48:41.567Z,89.40
2022-08-11T02:49:41.559Z,88.90
2022-08-11T02:50:41.559Z,87.67
2022-08-11T02:51:41.550Z,88.08
2022-08-11T02:52:41.563Z,88.18
2022-08-11T02:53:41.530Z,87.98
2022-08-11T02:54:41.528Z,89.00
2022-08-11T02:55:48.691Z,89.00
2022-08-11T02:56:42.508Z,88.84
2022-08-11T02:57:41.527Z,89.20
2022-08-11T02:58:41.561Z,89.40
2022-08-11T02:59:41.489Z,89.45
2022-08-11T03:00:41.475Z,89.14
2022-08-11T03:01:41.535Z,89.00
2022-08-11T03:02:41.486Z,89.00
2022-08-11T03:03:41.448Z,88.90
2022-08-11T03:04:41.445Z,88.79
2022-08-11T03:05:41.438Z,89.00
2022-08-11T03:06:41.450Z,89.65
2022-08-11T03:07:41.416Z,88.84
2022-08-11T03:08:41.411Z,88.22
2022-08-11T03:09:41.407Z,89.45
2022-08-11T03:10:41.397Z,88.73
2022-08-11T03:11:41.415Z,89.04
2022-08-11T03:12:41.385Z,89.04
2022-08-11T03:13:41.372Z,89.34
2022-08-11T03:14:41.364Z,89.34
2022-08-11T03:15:41.355Z,89.14
2022-08-11T03:16:41.373Z,89.25
2022-08-11T03:17:41.337Z,89.55
2022-08-11T03:18:41.336Z,89.86
2022-08-11T03:19:41.326Z,89.65
2022-08-11T03:20:41.317Z,89.75
2022-08-11T03:22:01.377Z,89.86
2022-08-11T03:22:42.306Z,90.00
2022-08-11T03:23:41.287Z,90.00
2022-08-11T03:24:41.287Z,90.00
2022-08-11T03:25:41.282Z,90.06
2022-08-11T03:26:41.293Z,89.69
2022-08-11T03:27:41.261Z,90.10
2022-08-11T03:28:41.254Z,90.00
2022-08-11T03:29:41.244Z,89.96
2022-08-11T03:30:41.242Z,90.20
2022-08-11T03:31:41.256Z,90.51
2022-08-11T03:32:41.220Z,89.79
2022-08-11T03:33:41.218Z,89.90
2022-08-11T03:34:41.208Z,90.31
2022-08-11T03:35:41.199Z,90.00
2022-08-11T03:37:01.717Z,90.00
2022-08-11T03:37:42.182Z,89.90
2022-08-11T03:38:41.174Z,89.49
2022-08-11T03:39:41.222Z,90.00
2022-08-11T03:40:42.155Z,89.79
2022-08-11T03:42:01.378Z,90.04
2022-08-11T03:42:42.144Z,90.00
2022-08-11T03:43:45.758Z,90.10
2022-08-11T03:44:42.123Z,89.59
2022-08-11T03:45:41.339Z,90.00
2022-08-11T03:46:42.135Z,90.10
2022-08-11T03:47:41.104Z,90.20
2022-08-11T03:48:42.091Z,90.86
2022-08-11T03:49:41.088Z,89.53
2022-08-11T03:50:41.077Z,89.73
2022-08-11T03:51:44.579Z,90.00
2022-08-11T03:52:41.066Z,90.75
2022-08-11T03:53:41.080Z,90.10
2022-08-11T03:54:41.045Z,90.35
2022-08-11T03:55:41.038Z,90.96
2022-08-11T03:56:41.030Z,90.55
2022-08-11T03:57:41.018Z,90.66
2022-08-11T03:58:42.033Z,90.96
2022-08-11T03:59:43.006Z,91.02
2022-08-11T04:00:40.997Z,90.81
2022-08-11T04:01:41.057Z,90.71
2022-08-11T04:02:40.987Z,90.75
2022-08-11T04:03:41.005Z,90.66
2022-08-11T04:04:40.979Z,90.55
2022-08-11T04:05:41.966Z,90.55
2022-08-11T04:06:40.957Z,90.55
2022-08-11T04:07:40.957Z,90.86
2022-08-11T04:08:40.963Z,90.71
2022-08-11T04:09:40.936Z,90.75
2022-08-11T04:10:40.936Z,90.71
2022-08-11T04:11:40.922Z,90.81
2022-08-11T04:12:45.537Z,90.20
2022-08-11T04:13:42.924Z,90.10
2022-08-11T04:14:40.895Z,90.20
2022-08-11T04:15:40.897Z,89.86
2022-08-11T04:16:40.881Z,90.00
2022-08-11T04:17:40.879Z,89.90
2022-08-11T04:18:40.894Z,89.96
2022-08-11T04:19:40.855Z,89.55
2022-08-11T04:20:40.852Z,89.55
2022-08-11T04:21:40.841Z,89.30
2022-08-11T04:22:40.835Z,88.85
2022-08-11T04:24:35.585Z,88.92
2022-08-11T04:24:41.822Z,87.85
2022-08-11T04:25:57.714Z,86.35
2022-08-11T04:26:41.809Z,84.78
2022-08-11T04:27:40.800Z,83.62
2022-08-11T04:28:45.695Z,82.17
2022-08-11T04:30:03.059Z,81.62
2022-08-11T04:30:41.777Z,80.46
2022-08-11T04:31:49.526Z,78.80
2022-08-11T04:32:41.767Z,78.91
2022-08-11T04:33:40.784Z,78.53
2022-08-11T04:34:40.746Z,77.98
2022-08-11T04:35:40.740Z,77.28
2022-08-11T04:36:40.738Z,76.29
2022-08-11T04:37:40.724Z,75.04
2022-08-11T04:38:40.742Z,73.83
2022-08-11T04:39:40.789Z,73.08
2022-08-11T04:40:40.702Z,72.64
2022-08-11T04:41:40.694Z,71.70
2022-08-11T04:42:40.880Z,71.70
2022-08-11T04:44:02.645Z,71.37
2022-08-11T04:44:41.668Z,70.73
2022-08-11T04:45:40.660Z,70.62
2022-08-11T04:46:40.657Z,70.29
2022-08-11T04:48:01.825Z,68.95
2022-08-11T04:48:41.656Z,68.41
2022-08-11T04:49:40.634Z,68.61
2022-08-11T04:50:40.622Z,68.04
2022-08-11T04:51:40.613Z,67.51
2022-08-11T04:52:40.882Z,66.91
2022-08-11T04:53:40.637Z,66.80
2022-08-11T04:54:40.588Z,66.80
2022-08-11T04:55:40.602Z,66.03
2022-08-11T04:56:40.580Z,66.10
2022-08-11T04:57:40.569Z,65.64
2022-08-11T04:58:40.587Z,64.40
2022-08-11T04:59:40.551Z,64.67
2022-08-11T05:00:40.548Z,63.93
2022-08-11T05:01:40.586Z,63.13
2022-08-11T05:02:40.533Z,63.00
2022-08-11T05:03:40.525Z,62.57
2022-08-11T05:04:40.545Z,60.94
2022-08-11T05:05:40.511Z,61.31
2022-08-11T05:06:41.508Z,61.11
2022-08-11T05:07:40.504Z,60.48
2022-08-11T05:08:40.521Z,59.95
2022-08-11T05:09:40.484Z,59.52
2022-08-11T05:10:43.223Z,58.99
2022-08-11T05:11:40.481Z,58.59
2022-08-11T05:12:40.464Z,57.67
2022-08-11T05:13:40.456Z,57.74
2022-08-11T05:14:40.473Z,57.54
2022-08-11T05:15:43.011Z,57.44
2022-08-11T05:16:40.438Z,58.00
2022-08-11T05:17:40.423Z,58.42
2022-08-11T05:18:40.421Z,59.32
2022-08-11T05:19:40.442Z,58.89
2022-08-11T05:20:40.404Z,57.97
2022-08-11T05:21:44.947Z,57.74
2022-08-11T05:22:41.389Z,56.68
2022-08-11T05:23:40.378Z,56.26
2022-08-11T05:24:40.430Z,55.73
2022-08-11T05:26:44.263Z,56.21
2022-08-11T05:26:47.243Z,53.69
2022-08-11T05:27:41.350Z,53.78
2022-08-11T05:28:40.342Z,53.19
2022-08-11T05:29:40.363Z,53.89
2022-08-11T05:30:40.332Z,54.81
2022-08-11T05:31:40.321Z,55.01
2022-08-11T05:32:40.375Z,55.38
2022-08-11T05:33:40.303Z,55.21
2022-08-11T05:34:40.331Z,55.11
2022-08-11T05:36:02.097Z,56.77
2022-08-11T05:36:41.285Z,56.30
2022-08-11T05:37:40.281Z,55.78
2022-08-11T05:38:40.299Z,55.55
2022-08-11T05:39:40.315Z,53.64
2022-08-11T05:40:40.291Z,54.26
2022-08-11T05:41:40.251Z,54.96
2022-08-11T05:42:40.622Z,53.64
2022-08-11T05:44:20.148Z,52.19
2022-08-11T05:44:41.224Z,52.59
2022-08-11T05:46:02.793Z,53.91
2022-08-11T05:46:41.215Z,53.81
2022-08-11T05:47:40.206Z,53.28
2022-08-11T05:48:40.229Z,52.62
2022-08-11T05:49:40.193Z,53.34
2022-08-11T05:50:40.181Z,52.14
2022-08-11T05:51:54.847Z,52.02
2022-08-11T05:52:41.824Z,52.12
2022-08-11T05:53:46.089Z,52.09
2022-08-11T05:54:41.150Z,52.49
2022-08-11T05:55:52.538Z,51.77
2022-08-11T05:56:41.140Z,51.65
2022-08-11T05:57:51.279Z,51.23
2022-08-11T05:58:43.046Z,50.21
2022-08-11T05:59:41.116Z,49.76
2022-08-11T06:00:40.108Z,49.46
2022-08-11T06:01:40.167Z,49.37
2022-08-11T06:02:40.117Z,48.90
2022-08-11T06:03:40.125Z,49.07
2022-08-11T06:04:41.087Z,49.99
2022-08-11T06:05:43.996Z,49.07
2022-08-11T06:06:43.493Z,49.84
2022-08-11T06:07:49.122Z,48.77
2022-08-11T06:08:41.088Z,49.84
2022-08-11T06:09:40.052Z,49.17
2022-08-11T06:10:40.043Z,49.79
2022-08-11T06:11:42.879Z,49.79
2022-08-11T06:12:40.027Z,48.77
2022-08-11T06:13:40.049Z,49.37
2022-08-11T06:14:40.019Z,50.23
2022-08-11T06:15:40.013Z,49.07
2022-08-11T06:16:40.009Z,48.72
2022-08-11T06:17:40.002Z,48.30
2022-08-11T06:18:40.023Z,47.59
2022-08-11T06:19:39.988Z,47.07
2022-08-11T06:20:39.986Z,47.34
2022-08-11T06:21:39.977Z,46.33
2022-08-11T06:22:39.968Z,46.31
2022-08-11T06:23:39.990Z,46.39
2022-08-11T06:24:39.964Z,46.29
2022-08-11T06:25:39.959Z,45.34
2022-08-11T06:26:55.087Z,44.40
2022-08-11T06:27:41.943Z,44.21
2022-08-11T06:28:40.027Z,44.45
2022-08-11T06:29:48.094Z,45.38
2022-08-11T06:30:40.918Z,45.60
2022-08-11T06:31:39.914Z,45.70
2022-08-11T06:32:40.070Z,45.28
2022-08-11T06:33:39.931Z,44.87
2022-08-11T06:34:39.894Z,45.60
2022-08-11T06:35:39.893Z,45.79
2022-08-11T06:36:39.889Z,45.70
2022-08-11T06:37:39.881Z,46.07
2022-08-11T06:38:39.900Z,45.48
2022-08-11T06:39:39.882Z,45.85
2022-08-11T06:40:39.858Z,44.80
2022-08-11T06:41:39.854Z,44.26
2022-08-11T06:42:39.935Z,42.47
2022-08-11T06:43:39.871Z,42.16
2022-08-11T06:44:40.837Z,42.38
2022-08-11T06:45:39.831Z,42.65
2022-08-11T06:46:39.827Z,42.55
2022-08-11T06:47:40.451Z,42.14
2022-08-11T06:48:39.843Z,42.04
2022-08-11T06:49:39.814Z,41.51
2022-08-11T06:50:39.806Z,41.02
2022-08-11T06:51:41.802Z,41.55
2022-08-11T06:52:39.797Z,42.86
2022-08-11T06:53:39.811Z,42.55
2022-08-11T06:54:39.781Z,43.06
2022-08-11T06:55:56.187Z,42.86
2022-08-11T06:56:40.764Z,42.24
2022-08-11T06:57:39.763Z,42.24
2022-08-11T06:58:39.786Z,41.41
2022-08-11T06:59:39.752Z,41.21
2022-08-11T07:00:39.757Z,41.29
2022-08-11T07:01:39.795Z,40.19
2022-08-11T07:02:39.801Z,40.09
2022-08-11T07:03:39.759Z,41.37
2022-08-11T07:04:39.723Z,41.47
2022-08-11T07:05:39.730Z,40.16
2022-08-11T07:06:50.626Z,40.27
2022-08-11T07:07:40.704Z,39.76
2022-08-11T07:08:39.725Z,39.41
2022-08-11T07:09:39.695Z,38.65
2022-08-11T07:10:39.691Z,39.56
2022-08-11T07:11:39.683Z,39.54
2022-08-11T07:12:39.831Z,39.33
2022-08-11T07:13:44.902Z,39.74
2022-08-11T07:14:40.663Z,39.51
2022-08-11T07:16:11.202Z,38.51
2022-08-11T07:16:40.658Z,37.99
2022-08-11T07:17:39.656Z,37.27
2022-08-11T07:18:39.671Z,37.87
2022-08-11T07:19:39.646Z,37.17
2022-08-11T07:20:39.635Z,37.04
2022-08-11T07:21:59.949Z,37.04
2022-08-11T07:22:40.624Z,37.52
2022-08-11T07:23:39.670Z,37.17
2022-08-11T07:24:59.628Z,37.38
2022-08-11T07:25:40.608Z,38.02
2022-08-11T07:26:39.605Z,38.43
2022-08-11T07:27:39.601Z,39.94
2022-08-11T07:28:39.630Z,40.11
2022-08-11T07:29:39.593Z,38.43
2022-08-11T07:30:39.583Z,39.62
2022-08-11T07:31:39.581Z,38.71
2022-08-11T07:32:39.579Z,37.62
2022-08-11T07:34:07.502Z,38.26
2022-08-11T07:34:40.592Z,37.37
2022-08-11T07:35:39.553Z,37.25
2022-08-11T07:36:39.570Z,36.33
2022-08-11T07:37:39.546Z,36.22
2022-08-11T07:38:39.541Z,35.61
2022-08-11T07:39:39.703Z,36.10
2022-08-11T07:40:39.535Z,35.71
2022-08-11T07:41:39.524Z,35.83
2022-08-11T07:42:39.707Z,36.06
2022-08-11T07:43:39.517Z,37.02
2022-08-11T07:44:39.531Z,37.88
2022-08-11T07:45:39.502Z,37.69
2022-08-11T07:46:39.495Z,38.18
2022-08-11T07:47:39.487Z,38.08
2022-08-11T07:48:39.482Z,38.49
2022-08-11T07:49:39.504Z,37.74
2022-08-11T07:50:39.472Z,40.35
2022-08-11T07:51:39.493Z,39.58
2022-08-11T07:52:39.572Z,40.16
2022-08-11T07:53:57.910Z,39.78
2022-08-11T07:54:40.476Z,39.88
2022-08-11T07:55:48.966Z,39.07
2022-08-11T07:56:55.497Z,39.94
2022-08-11T07:58:04.378Z,39.98
2022-08-11T07:58:45.050Z,39.45
2022-08-11T07:59:58.572Z,38.13
2022-08-11T08:00:40.425Z,38.31
2022-08-11T08:01:39.471Z,37.96
2022-08-11T08:02:39.455Z,39.23
2022-08-11T08:03:39.404Z,38.48
2022-08-11T08:04:44.136Z,39.66
2022-08-11T08:05:40.389Z,38.37
2022-08-11T08:06:39.386Z,38.33
2022-08-11T08:07:39.370Z,38.17
2022-08-11T08:08:40.373Z,39.74
2022-08-11T08:09:39.391Z,38.53
2022-08-11T08:10:39.378Z,38.62
2022-08-11T08:11:39.359Z,39.74
2022-08-11T08:12:39.549Z,38.76
2022-08-11T08:13:39.344Z,38.12
2022-08-11T08:14:39.361Z,38.35
2022-08-11T08:15:39.330Z,37.41
2022-08-11T08:16:39.328Z,37.84
2022-08-11T08:17:39.327Z,38.27
2022-08-11T08:18:39.329Z,40.86
2022-08-11T08:19:39.500Z,39.76
2022-08-11T08:20:39.312Z,39.43
2022-08-11T08:21:39.303Z,39.41
2022-08-11T08:22:40.550Z,39.53
2022-08-11T08:23:40.287Z,39.54
2022-08-11T08:24:39.306Z,40.37
2022-08-11T08:25:39.276Z,40.08
2022-08-11T08:26:39.269Z,39.74
2022-08-11T08:27:39.266Z,40.16
2022-08-11T08:28:39.259Z,39.78
2022-08-11T08:29:39.254Z,40.08
2022-08-11T08:30:39.275Z,40.94
2022-08-11T08:31:39.238Z,40.06
2022-08-11T08:32:39.366Z,39.53
2022-08-11T08:33:39.224Z,38.66
2022-08-11T08:34:39.222Z,39.64
2022-08-11T08:35:54.386Z,40.06
2022-08-11T08:36:40.206Z,40.48
2022-08-11T08:37:45.569Z,41.49
2022-08-11T08:38:40.184Z,41.27
2022-08-11T08:39:40.259Z,40.70
2022-08-11T08:40:39.214Z,42.18
2022-08-11T08:41:39.182Z,41.59
2022-08-11T08:42:43.091Z,41.37
2022-08-11T08:43:47.617Z,40.09
2022-08-11T08:44:41.340Z,40.76
2022-08-11T08:45:40.189Z,40.23
2022-08-11T08:46:39.149Z,37.94
2022-08-11T08:47:42.913Z,39.25
2022-08-11T08:48:39.140Z,39.70
2022-08-11T08:49:40.424Z,39.78
2022-08-11T08:50:39.161Z,39.45
2022-08-11T08:52:00.837Z,40.37
2022-08-11T08:52:43.641Z,40.56
2022-08-11T08:53:40.111Z,40.25
2022-08-11T08:54:40.101Z,39.03
2022-08-11T08:55:44.995Z,39.03
2022-08-11T08:56:41.095Z,38.58
2022-08-11T08:57:40.223Z,39.60
2022-08-11T08:58:39.085Z,39.92
2022-08-11T08:59:49.221Z,41.71
2022-08-11T09:00:40.094Z,41.22
2022-08-11T09:01:39.094Z,40.61
2022-08-11T09:02:39.054Z,40.70
2022-08-11T09:04:05.239Z,39.80
2022-08-11T09:04:41.041Z,40.19
2022-08-11T09:05:39.066Z,37.95
2022-08-11T09:06:39.031Z,38.17
2022-08-11T09:07:40.631Z,38.26
2022-08-11T09:08:39.027Z,39.94
2022-08-11T09:09:39.016Z,39.25
2022-08-11T09:10:39.032Z,40.05
2022-08-11T09:11:39.001Z,41.33
2022-08-11T09:12:39.305Z,40.25
2022-08-11T09:13:38.988Z,40.55
2022-08-11T09:14:38.983Z,40.96
2022-08-11T09:15:39.006Z,41.63
2022-08-11T09:16:38.967Z,39.54
2022-08-11T09:17:39.591Z,40.16
2022-08-11T09:18:38.956Z,40.08
2022-08-11T09:19:38.952Z,41.27
2022-08-11T09:20:38.963Z,40.37
2022-08-11T09:21:49.439Z,40.56
2022-08-11T09:22:40.032Z,40.86
2022-08-11T09:24:08.843Z,39.78
2022-08-11T09:24:40.909Z,39.76
2022-08-11T09:25:38.929Z,39.64
2022-08-11T09:26:38.898Z,40.39
2022-08-11T09:27:39.096Z,39.92
2022-08-11T09:28:39.882Z,40.43
2022-08-11T09:29:38.885Z,40.94
2022-08-11T09:30:38.897Z,40.82
2022-08-11T09:31:40.048Z,39.94
2022-08-11T09:32:39.870Z,40.03
2022-08-11T09:33:38.849Z,39.31
2022-08-11T09:34:38.846Z,38.46
2022-08-11T09:35:38.865Z,39.29
2022-08-11T09:36:38.851Z,39.72
2022-08-11T09:37:55.582Z,39.72
2022-08-11T09:38:39.818Z,39.82
2022-08-11T09:39:38.863Z,40.39
2022-08-11T09:40:38.832Z,37.82
2022-08-11T09:42:01.518Z,35.60
2022-08-11T09:42:39.795Z,35.97
2022-08-11T09:43:38.787Z,35.58
2022-08-11T09:44:38.779Z,34.83
2022-08-11T09:45:40.203Z,35.57
2022-08-11T09:46:38.764Z,36.22
2022-08-11T09:47:38.888Z,35.63
2022-08-11T09:48:38.748Z,35.82
2022-08-11T09:49:38.743Z,35.43
2022-08-11T09:50:38.764Z,36.13
2022-08-11T09:51:38.735Z,36.43
2022-08-11T09:52:38.723Z,36.15
2022-08-11T09:53:41.266Z,37.63
2022-08-11T09:54:38.705Z,36.27
2022-08-11T09:55:38.727Z,37.76
2022-08-11T09:56:38.698Z,38.34
2022-08-11T09:57:38.777Z,36.46
2022-08-11T09:58:42.620Z,37.55
2022-08-11T09:59:38.679Z,37.66
2022-08-11T10:00:38.696Z,36.38
2022-08-11T10:01:38.681Z,36.98
2022-08-11T10:02:38.659Z,36.09
2022-08-11T10:03:40.464Z,36.38
2022-08-11T10:04:39.641Z,35.97
2022-08-11T10:05:38.674Z,37.05
2022-08-11T10:06:38.626Z,37.53
2022-08-11T10:07:38.750Z,38.40
2022-08-11T10:08:38.625Z,37.04
2022-08-11T10:09:38.606Z,38.42
2022-08-11T10:10:38.625Z,36.86
2022-08-11T10:11:38.599Z,36.96
2022-08-11T10:12:38.585Z,36.27
2022-08-11T10:14:32.180Z,37.37
2022-08-11T10:14:44.410Z,36.38
2022-08-11T10:15:59.564Z,37.35
2022-08-11T10:16:39.552Z,36.36
2022-08-11T10:17:38.660Z,37.26
2022-08-11T10:18:38.540Z,36.86
2022-08-11T10:19:38.534Z,37.57
2022-08-11T10:20:38.554Z,37.57
2022-08-11T10:21:38.524Z,37.76
2022-08-11T10:22:38.505Z,38.85
2022-08-11T10:24:01.015Z,38.35
2022-08-11T10:24:39.492Z,37.68
2022-08-11T10:25:38.508Z,38.18
2022-08-11T10:26:38.471Z,38.16
2022-08-11T10:28:16.592Z,37.27
2022-08-11T10:29:02.197Z,37.57
2022-08-11T10:29:44.253Z,35.77
2022-08-11T10:30:38.442Z,37.35
2022-08-11T10:31:45.141Z,37.27
2022-08-11T10:32:49.356Z,37.65
2022-08-11T10:33:41.759Z,37.45
2022-08-11T10:34:40.415Z,37.63
2022-08-11T10:35:39.411Z,36.15
2022-08-11T10:36:38.427Z,35.96
2022-08-11T10:38:08.522Z,35.86
2022-08-11T10:38:39.388Z,36.63
2022-08-11T10:39:38.444Z,38.09
2022-08-11T10:40:38.375Z,37.32
2022-08-11T10:41:38.390Z,37.61
2022-08-11T10:42:57.062Z,38.79
2022-08-11T10:44:02.498Z,38.20
2022-08-11T10:44:39.346Z,36.72
2022-08-11T10:45:38.335Z,38.32
2022-08-11T10:46:38.355Z,37.53
2022-08-11T10:47:38.459Z,37.74
2022-08-11T10:48:39.316Z,37.45
2022-08-11T10:49:38.304Z,38.04
2022-08-11T10:50:38.297Z,38.51
2022-08-11T10:51:51.667Z,37.14
2022-08-11T10:52:39.463Z,37.34
2022-08-11T10:53:38.275Z,37.91
2022-08-11T10:54:38.266Z,37.41
2022-08-11T10:55:38.254Z,38.01
2022-08-11T10:56:38.280Z,36.33
2022-08-11T10:57:38.474Z,38.10
2022-08-11T10:58:38.236Z,37.99
2022-08-11T10:59:38.227Z,37.61
2022-08-11T11:00:38.218Z,37.53
2022-08-11T11:01:38.243Z,37.73
2022-08-11T11:02:38.208Z,38.42
2022-08-11T11:03:38.201Z,38.89
2022-08-11T11:04:38.217Z,38.34
2022-08-11T11:05:38.186Z,38.73
2022-08-11T11:06:39.202Z,37.85
2022-08-11T11:07:41.491Z,39.23
2022-08-11T11:08:39.230Z,38.54
2022-08-11T11:09:38.160Z,38.56
2022-08-11T11:10:38.154Z,39.52
2022-08-11T11:11:38.177Z,38.62
2022-08-11T11:12:38.278Z,38.01
2022-08-11T11:13:38.127Z,37.53
2022-08-11T11:14:46.275Z,37.53
2022-08-11T11:15:39.112Z,37.63
2022-08-11T11:16:38.135Z,37.65
2022-08-11T11:17:38.098Z,38.04
2022-08-11T11:18:38.094Z,38.22
2022-08-11T11:19:38.093Z,37.81
2022-08-11T11:20:40.776Z,37.22
2022-08-11T11:21:43.330Z,37.32
2022-08-11T11:22:38.303Z,38.48
2022-08-11T11:23:38.055Z,37.08
2022-08-11T11:24:38.049Z,37.59
2022-08-11T11:25:38.042Z,37.08
2022-08-11T11:26:38.059Z,37.32
2022-08-11T11:27:46.687Z,37.43
2022-08-11T11:28:39.018Z,38.12
2022-08-11T11:29:38.009Z,38.12
2022-08-11T11:30:38.010Z,37.73
2022-08-11T11:31:38.038Z,35.96
2022-08-11T11:32:38.165Z,38.12
2022-08-11T11:33:59.968Z,37.81
2022-08-11T11:34:53.182Z,36.82
2022-08-11T11:35:38.969Z,37.85
2022-08-11T11:36:37.963Z,38.14
2022-08-11T11:37:37.981Z,37.55
2022-08-11T11:38:37.945Z,37.95
2022-08-11T11:39:37.946Z,38.22
2022-08-11T11:40:37.930Z,36.43
2022-08-11T11:41:37.922Z,37.81
2022-08-11T11:42:38.174Z,38.60
2022-08-11T11:43:37.912Z,36.51
2022-08-11T11:44:37.898Z,37.69
2022-08-11T11:45:37.903Z,35.92
2022-08-11T11:46:38.845Z,36.11
2022-08-11T11:47:37.905Z,36.02
2022-08-11T11:48:37.868Z,35.82
2022-08-11T11:49:37.864Z,36.04
2022-08-11T11:50:37.860Z,36.43
2022-08-11T11:51:37.851Z,37.71
2022-08-11T11:52:38.086Z,35.92
2022-08-11T11:53:37.831Z,37.99
2022-08-11T11:54:37.832Z,35.84
2022-08-11T11:55:37.827Z,35.64
2022-08-11T11:56:37.813Z,36.82
2022-08-11T11:57:38.030Z,37.69
2022-08-11T11:58:37.796Z,37.12
2022-08-11T11:59:37.790Z,36.33
2022-08-11T12:00:40.360Z,37.32
2022-08-11T12:01:38.773Z,37.61
2022-08-11T12:02:37.790Z,36.72
2022-08-11T12:03:37.798Z,37.49
2022-08-11T12:04:37.749Z,37.10
2022-08-11T12:05:37.740Z,37.49
2022-08-11T12:06:37.778Z,37.87
2022-08-11T12:07:37.896Z,37.48
2022-08-11T12:08:37.717Z,36.59
2022-08-11T12:09:37.720Z,37.28
2022-08-11T12:10:37.701Z,36.61
2022-08-11T12:11:37.699Z,37.01
2022-08-11T12:12:37.719Z,35.90
2022-08-11T12:13:37.683Z,36.40
2022-08-11T12:14:37.675Z,36.59
2022-08-11T12:16:31.326Z,36.40
2022-08-11T12:16:38.661Z,35.80
2022-08-11T12:17:37.969Z,36.61
2022-08-11T12:18:37.649Z,35.82
2022-08-11T12:19:37.646Z,36.13
2022-08-11T12:20:37.636Z,37.79
2022-08-11T12:21:37.631Z,36.88
2022-08-11T12:22:37.649Z,35.31
2022-08-11T12:23:37.617Z,36.02
2022-08-11T12:24:37.609Z,37.49
2022-08-11T12:25:37.602Z,37.20
2022-08-11T12:26:37.598Z,36.02
2022-08-11T12:27:39.306Z,36.53
2022-08-11T12:28:37.581Z,36.23
2022-08-11T12:29:41.117Z,35.25
2022-08-11T12:30:38.597Z,37.02
2022-08-11T12:31:37.560Z,37.02
2022-08-11T12:32:37.775Z,36.02
2022-08-11T12:33:39.532Z,35.23
2022-08-11T12:34:38.534Z,35.33
2022-08-11T12:35:37.525Z,36.23
2022-08-11T12:36:37.519Z,36.61
2022-08-11T12:37:37.636Z,37.01
2022-08-11T12:38:37.505Z,36.51
2022-08-11T12:40:16.219Z,36.40
2022-08-11T12:41:03.565Z,36.11
2022-08-11T12:41:38.564Z,37.59
2022-08-11T12:42:37.495Z,37.01
2022-08-11T12:43:38.713Z,35.82
2022-08-11T12:44:37.454Z,36.22
2022-08-11T12:45:37.449Z,37.57
2022-08-11T12:46:37.442Z,36.32
2022-08-11T12:47:37.744Z,37.59
2022-08-11T12:48:58.854Z,36.40
2022-08-11T12:49:41.991Z,35.71
2022-08-11T12:50:38.412Z,36.88
2022-08-11T12:52:00.886Z,35.51
2022-08-11T12:52:38.425Z,36.51